sensor_id;sensor_type;location;lat;lon;timestamp;P1;durP1;ratioP1;P2;durP2;ratioP2
70122;SDS011;57489;37.404;24.920;2023-04-25T00:01:51;7.07;;;2.97;;
70122;SDS011;57489;37.404;24.920;2023-04-25T00:06:53;7.00;;;3.17;;
70122;SDS011;57489;37.404;24.920;2023-04-25T00:11:53;9.00;;;2.92;;
70122;SDS011;57489;37.404;24.920;2023-04-25T00:16:54;5.60;;;2.70;;
70122;SDS011;57489;37.404;24.920;2023-04-25T00:21:55;7.67;;;3.70;;
70122;SDS011;57489;37.404;24.920;2023-04-25T00:26:55;6.67;;;2.87;;
70122;SDS011;57489;37.404;24.920;2023-04-25T00:31:56;7.53;;;3.22;;
70122;SDS011;57489;37.404;24.920;2023-04-25T00:36:56;6.30;;;2.53;;
70122;SDS011;57489;37.404;24.920;2023-04-25T00:41:57;6.37;;;3.30;;
70122;SDS011;57489;37.404;24.920;2023-04-25T00:46:58;7.10;;;3.13;;
70122;SDS011;57489;37.404;24.920;2023-04-25T00:51:59;6.13;;;2.95;;
70122;SDS011;57489;37.404;24.920;2023-04-25T00:57:00;7.17;;;2.70;;
70122;SDS011;57489;37.404;24.920;2023-04-25T01:02:00;6.40;;;3.13;;
70122;SDS011;57489;37.404;24.920;2023-04-25T01:07:01;7.20;;;3.53;;
70122;SDS011;57489;37.404;24.920;2023-04-25T01:12:02;6.57;;;2.67;;
70122;SDS011;57489;37.404;24.920;2023-04-25T01:17:02;6.70;;;2.60;;
70122;SDS011;57489;37.404;24.920;2023-04-25T01:22:03;6.73;;;3.10;;
70122;SDS011;57489;37.404;24.920;2023-04-25T01:27:04;6.40;;;2.80;;
70122;SDS011;57489;37.404;24.920;2023-04-25T01:32:05;7.53;;;2.40;;
70122;SDS011;57489;37.404;24.920;2023-04-25T01:37:06;6.30;;;2.75;;
70122;SDS011;57489;37.404;24.920;2023-04-25T01:42:06;6.20;;;2.33;;
70122;SDS011;57489;37.404;24.920;2023-04-25T01:47:07;9.27;;;3.10;;
70122;SDS011;57489;37.404;24.920;2023-04-25T01:52:07;9.90;;;3.30;;
70122;SDS011;57489;37.404;24.920;2023-04-25T01:57:08;8.33;;;2.70;;
70122;SDS011;57489;37.404;24.920;2023-04-25T02:02:08;7.73;;;3.23;;
70122;SDS011;57489;37.404;24.920;2023-04-25T02:07:09;6.50;;;3.10;;
70122;SDS011;57489;37.404;24.920;2023-04-25T02:12:09;7.80;;;3.33;;
70122;SDS011;57489;37.404;24.920;2023-04-25T02:17:10;7.57;;;3.10;;
70122;SDS011;57489;37.404;24.920;2023-04-25T02:22:10;7.77;;;2.80;;
70122;SDS011;57489;37.404;24.920;2023-04-25T02:27:11;5.93;;;3.00;;
70122;SDS011;57489;37.404;24.920;2023-04-25T02:32:11;8.60;;;2.90;;
70122;SDS011;57489;37.404;24.920;2023-04-25T02:37:12;6.45;;;2.72;;
70122;SDS011;57489;37.404;24.920;2023-04-25T02:42:12;8.23;;;3.27;;
70122;SDS011;57489;37.404;24.920;2023-04-25T02:47:13;5.83;;;2.87;;
70122;SDS011;57489;37.404;24.920;2023-04-25T02:52:13;5.67;;;2.87;;
70122;SDS011;57489;37.404;24.920;2023-04-25T02:57:14;6.80;;;3.10;;
70122;SDS011;57489;37.404;24.920;2023-04-25T03:02:14;6.13;;;2.57;;
70122;SDS011;57489;37.404;24.920;2023-04-25T03:07:14;6.93;;;2.80;;
70122;SDS011;57489;37.404;24.920;2023-04-25T03:12:15;7.40;;;3.10;;
70122;SDS011;57489;37.404;24.920;2023-04-25T03:17:15;6.83;;;2.80;;
70122;SDS011;57489;37.404;24.920;2023-04-25T03:22:16;5.60;;;2.63;;
70122;SDS011;57489;37.404;24.920;2023-04-25T03:27:17;6.07;;;2.80;;
70122;SDS011;57489;37.404;24.920;2023-04-25T03:32:17;5.33;;;2.53;;
70122;SDS011;57489;37.404;24.920;2023-04-25T03:37:18;5.87;;;2.73;;
70122;SDS011;57489;37.404;24.920;2023-04-25T03:42:18;5.53;;;2.47;;
70122;SDS011;57489;37.404;24.920;2023-04-25T03:47:19;7.00;;;3.13;;
70122;SDS011;57489;37.404;24.920;2023-04-25T03:52:19;7.93;;;2.60;;
70122;SDS011;57489;37.404;24.920;2023-04-25T03:57:19;5.93;;;2.50;;
70122;SDS011;57489;37.404;24.920;2023-04-25T04:02:20;6.03;;;2.70;;
70122;SDS011;57489;37.404;24.920;2023-04-25T04:07:20;6.87;;;2.77;;
70122;SDS011;57489;37.404;24.920;2023-04-25T04:12:21;4.47;;;2.40;;
70122;SDS011;57489;37.404;24.920;2023-04-25T04:17:21;4.63;;;2.23;;
70122;SDS011;57489;37.404;24.920;2023-04-25T04:22:22;6.77;;;3.33;;
70122;SDS011;57489;37.404;24.920;2023-04-25T04:27:23;8.02;;;3.28;;
70122;SDS011;57489;37.404;24.920;2023-04-25T04:32:24;7.00;;;3.10;;
70122;SDS011;57489;37.404;24.920;2023-04-25T04:37:24;8.17;;;2.77;;
70122;SDS011;57489;37.404;24.920;2023-04-25T04:42:24;7.80;;;3.30;;
70122;SDS011;57489;37.404;24.920;2023-04-25T04:47:25;10.93;;;3.73;;
70122;SDS011;57489;37.404;24.920;2023-04-25T04:52:25;15.13;;;4.23;;
70122;SDS011;57489;37.404;24.920;2023-04-25T04:57:26;17.67;;;5.47;;
70122;SDS011;57489;37.404;24.920;2023-04-25T05:02:27;24.70;;;6.03;;
70122;SDS011;57489;37.404;24.920;2023-04-25T05:07:28;19.30;;;5.80;;
70122;SDS011;57489;37.404;24.920;2023-04-25T05:12:28;15.50;;;4.83;;
70122;SDS011;57489;37.404;24.920;2023-04-25T05:17:28;18.42;;;5.13;;
70122;SDS011;57489;37.404;24.920;2023-04-25T05:22:29;16.77;;;5.03;;
70122;SDS011;57489;37.404;24.920;2023-04-25T05:27:29;16.23;;;5.63;;
70122;SDS011;57489;37.404;24.920;2023-04-25T05:32:30;11.57;;;4.47;;
70122;SDS011;57489;37.404;24.920;2023-04-25T05:37:30;21.97;;;6.00;;
70122;SDS011;57489;37.404;24.920;2023-04-25T05:42:31;18.80;;;5.77;;
70122;SDS011;57489;37.404;24.920;2023-04-25T05:47:31;13.63;;;5.17;;
70122;SDS011;57489;37.404;24.920;2023-04-25T05:52:32;14.87;;;4.40;;
70122;SDS011;57489;37.404;24.920;2023-04-25T05:57:32;19.13;;;4.60;;
70122;SDS011;57489;37.404;24.920;2023-04-25T06:02:32;16.43;;;5.30;;
70122;SDS011;57489;37.404;24.920;2023-04-25T06:07:33;16.27;;;4.67;;
70122;SDS011;57489;37.404;24.920;2023-04-25T06:12:33;15.37;;;6.07;;
70122;SDS011;57489;37.404;24.920;2023-04-25T06:17:34;14.27;;;4.70;;
70122;SDS011;57489;37.404;24.920;2023-04-25T06:22:34;21.43;;;5.27;;
70122;SDS011;57489;37.404;24.920;2023-04-25T06:27:35;15.43;;;5.67;;
70122;SDS011;57489;37.404;24.920;2023-04-25T06:32:35;13.50;;;5.20;;
70122;SDS011;57489;37.404;24.920;2023-04-25T06:37:36;14.93;;;5.23;;
70122;SDS011;57489;37.404;24.920;2023-04-25T06:42:36;11.10;;;4.83;;
70122;SDS011;57489;37.404;24.920;2023-04-25T06:47:38;9.40;;;4.63;;
70122;SDS011;57489;37.404;24.920;2023-04-25T06:52:38;8.87;;;4.83;;
70122;SDS011;57489;37.404;24.920;2023-04-25T06:57:39;10.03;;;4.60;;
70122;SDS011;57489;37.404;24.920;2023-04-25T07:02:39;9.37;;;4.87;;
70122;SDS011;57489;37.404;24.920;2023-04-25T07:07:40;10.00;;;4.30;;
70122;SDS011;57489;37.404;24.920;2023-04-25T07:12:40;8.83;;;4.97;;
70122;SDS011;57489;37.404;24.920;2023-04-25T07:17:40;7.77;;;4.80;;
70122;SDS011;57489;37.404;24.920;2023-04-25T07:22:41;11.17;;;4.90;;
70122;SDS011;57489;37.404;24.920;2023-04-25T07:27:41;12.63;;;5.00;;
70122;SDS011;57489;37.404;24.920;2023-04-25T07:32:42;9.67;;;4.77;;
70122;SDS011;57489;37.404;24.920;2023-04-25T07:37:42;8.13;;;4.60;;
70122;SDS011;57489;37.404;24.920;2023-04-25T07:42:43;9.13;;;4.90;;
70122;SDS011;57489;37.404;24.920;2023-04-25T07:47:43;9.80;;;4.53;;
70122;SDS011;57489;37.404;24.920;2023-04-25T07:52:44;12.10;;;5.32;;
70122;SDS011;57489;37.404;24.920;2023-04-25T07:57:44;7.63;;;5.13;;
70122;SDS011;57489;37.404;24.920;2023-04-25T08:02:44;9.37;;;4.70;;
70122;SDS011;57489;37.404;24.920;2023-04-25T08:07:45;9.23;;;4.47;;
70122;SDS011;57489;37.404;24.920;2023-04-25T08:12:45;11.30;;;4.60;;
70122;SDS011;57489;37.404;24.920;2023-04-25T08:17:46;9.67;;;4.27;;
70122;SDS011;57489;37.404;24.920;2023-04-25T08:22:46;7.97;;;4.53;;
70122;SDS011;57489;37.404;24.920;2023-04-25T08:27:47;7.33;;;4.23;;
70122;SDS011;57489;37.404;24.920;2023-04-25T08:32:47;9.73;;;4.53;;
70122;SDS011;57489;37.404;24.920;2023-04-25T08:37:48;8.83;;;4.33;;
70122;SDS011;57489;37.404;24.920;2023-04-25T08:42:48;9.63;;;4.38;;
70122;SDS011;57489;37.404;24.920;2023-04-25T08:47:51;11.80;;;4.80;;
70122;SDS011;57489;37.404;24.920;2023-04-25T08:52:52;9.70;;;4.50;;
70122;SDS011;57489;37.404;24.920;2023-04-25T08:57:54;8.60;;;4.38;;
70122;SDS011;57489;37.404;24.920;2023-04-25T09:02:55;8.87;;;4.10;;
70122;SDS011;57489;37.404;24.920;2023-04-25T09:07:55;8.40;;;4.55;;
70122;SDS011;57489;37.404;24.920;2023-04-25T09:13:09;8.97;;;4.50;;
70122;SDS011;57489;37.404;24.920;2023-04-25T09:18:12;9.83;;;4.00;;
70122;SDS011;57489;37.404;24.920;2023-04-25T09:23:14;6.73;;;3.80;;
70122;SDS011;57489;37.404;24.920;2023-04-25T09:28:14;8.17;;;4.30;;
70122;SDS011;57489;37.404;24.920;2023-04-25T09:33:15;7.00;;;3.60;;
70122;SDS011;57489;37.404;24.920;2023-04-25T09:38:15;9.87;;;4.50;;
70122;SDS011;57489;37.404;24.920;2023-04-25T09:43:19;7.43;;;3.83;;
70122;SDS011;57489;37.404;24.920;2023-04-25T09:48:21;10.80;;;4.10;;
70122;SDS011;57489;37.404;24.920;2023-04-25T09:53:22;10.27;;;4.28;;
70122;SDS011;57489;37.404;24.920;2023-04-25T09:58:23;7.23;;;4.00;;
70122;SDS011;57489;37.404;24.920;2023-04-25T10:03:24;6.78;;;4.07;;
70122;SDS011;57489;37.404;24.920;2023-04-25T10:08:31;7.80;;;3.90;;
70122;SDS011;57489;37.404;24.920;2023-04-25T10:13:32;6.50;;;3.55;;
70122;SDS011;57489;37.404;24.920;2023-04-25T10:18:33;6.80;;;3.65;;
70122;SDS011;57489;37.404;24.920;2023-04-25T10:23:34;6.57;;;3.53;;
70122;SDS011;57489;37.404;24.920;2023-04-25T10:28:55;7.73;;;3.87;;
70122;SDS011;57489;37.404;24.920;2023-04-25T10:33:56;8.47;;;3.30;;
70122;SDS011;57489;37.404;24.920;2023-04-25T10:38:58;7.32;;;3.65;;
70122;SDS011;57489;37.404;24.920;2023-04-25T10:44:05;7.33;;;3.53;;
70122;SDS011;57489;37.404;24.920;2023-04-25T10:49:06;6.90;;;3.50;;
70122;SDS011;57489;37.404;24.920;2023-04-25T10:54:08;6.65;;;3.80;;
70122;SDS011;57489;37.404;24.920;2023-04-25T10:59:10;7.73;;;3.93;;
70122;SDS011;57489;37.404;24.920;2023-04-25T11:04:21;10.10;;;3.50;;
70122;SDS011;57489;37.404;24.920;2023-04-25T11:09:23;5.83;;;3.43;;
70122;SDS011;57489;37.404;24.920;2023-04-25T11:14:24;8.70;;;3.30;;
70122;SDS011;57489;37.404;24.920;2023-04-25T11:19:25;11.27;;;3.87;;
70122;SDS011;57489;37.404;24.920;2023-04-25T11:24:30;12.05;;;3.90;;
70122;SDS011;57489;37.404;24.920;2023-04-25T11:29:33;9.95;;;3.33;;
70122;SDS011;57489;37.404;24.920;2023-04-25T11:34:34;10.27;;;4.13;;
70122;SDS011;57489;37.404;24.920;2023-04-25T11:44:35;10.90;;;3.30;;
70122;SDS011;57489;37.404;24.920;2023-04-25T11:49:38;11.27;;;3.60;;
70122;SDS011;57489;37.404;24.920;2023-04-25T11:54:38;11.93;;;3.27;;
70122;SDS011;57489;37.404;24.920;2023-04-25T11:59:39;8.80;;;3.87;;
70122;SDS011;57489;37.404;24.920;2023-04-25T12:04:40;9.53;;;3.80;;
70122;SDS011;57489;37.404;24.920;2023-04-25T12:09:41;9.60;;;4.60;;
70122;SDS011;57489;37.404;24.920;2023-04-25T12:14:45;8.87;;;3.10;;
70122;SDS011;57489;37.404;24.920;2023-04-25T12:19:47;10.80;;;3.43;;
70122;SDS011;57489;37.404;24.920;2023-04-25T12:24:47;8.18;;;3.00;;
70122;SDS011;57489;37.404;24.920;2023-04-25T12:29:51;9.67;;;3.00;;
70122;SDS011;57489;37.404;24.920;2023-04-25T12:34:53;10.97;;;3.13;;
70122;SDS011;57489;37.404;24.920;2023-04-25T12:39:54;9.60;;;3.63;;
70122;SDS011;57489;37.404;24.920;2023-04-25T12:44:54;7.18;;;3.25;;
70122;SDS011;57489;37.404;24.920;2023-04-25T12:49:55;7.10;;;3.10;;
70122;SDS011;57489;37.404;24.920;2023-04-25T12:54:55;6.07;;;2.60;;
70122;SDS011;57489;37.404;24.920;2023-04-25T12:59:56;7.10;;;3.07;;
70122;SDS011;57489;37.404;24.920;2023-04-25T13:04:56;9.07;;;2.63;;
70122;SDS011;57489;37.404;24.920;2023-04-25T13:09:56;8.57;;;3.60;;
70122;SDS011;57489;37.404;24.920;2023-04-25T13:14:57;7.40;;;3.00;;
70122;SDS011;57489;37.404;24.920;2023-04-25T13:19:57;7.67;;;3.27;;
70122;SDS011;57489;37.404;24.920;2023-04-25T13:24:58;8.80;;;3.87;;
70122;SDS011;57489;37.404;24.920;2023-04-25T13:29:58;7.53;;;3.17;;
70122;SDS011;57489;37.404;24.920;2023-04-25T13:34:59;11.20;;;3.03;;
70122;SDS011;57489;37.404;24.920;2023-04-25T13:40:00;12.33;;;3.80;;
70122;SDS011;57489;37.404;24.920;2023-04-25T13:45:01;6.75;;;3.20;;
70122;SDS011;57489;37.404;24.920;2023-04-25T13:50:02;12.50;;;3.03;;
70122;SDS011;57489;37.404;24.920;2023-04-25T13:55:03;9.32;;;2.95;;
70122;SDS011;57489;37.404;24.920;2023-04-25T14:00:04;8.43;;;3.10;;
70122;SDS011;57489;37.404;24.920;2023-04-25T14:05:05;9.60;;;3.40;;
70122;SDS011;57489;37.404;24.920;2023-04-25T14:10:06;10.05;;;2.90;;
70122;SDS011;57489;37.404;24.920;2023-04-25T14:15:07;9.50;;;3.13;;
70122;SDS011;57489;37.404;24.920;2023-04-25T14:20:08;10.23;;;3.20;;
70122;SDS011;57489;37.404;24.920;2023-04-25T14:25:09;9.95;;;3.83;;
70122;SDS011;57489;37.404;24.920;2023-04-25T14:30:09;7.87;;;2.93;;
70122;SDS011;57489;37.404;24.920;2023-04-25T14:35:10;6.78;;;3.25;;
70122;SDS011;57489;37.404;24.920;2023-04-25T14:40:11;9.90;;;4.53;;
70122;SDS011;57489;37.404;24.920;2023-04-25T14:45:12;9.00;;;2.95;;
70122;SDS011;57489;37.404;24.920;2023-04-25T14:50:13;9.07;;;3.20;;
70122;SDS011;57489;37.404;24.920;2023-04-25T14:55:13;10.80;;;3.60;;
70122;SDS011;57489;37.404;24.920;2023-04-25T15:00:14;11.70;;;4.03;;
70122;SDS011;57489;37.404;24.920;2023-04-25T15:05:15;14.40;;;4.00;;
70122;SDS011;57489;37.404;24.920;2023-04-25T15:10:16;12.17;;;3.23;;
70122;SDS011;57489;37.404;24.920;2023-04-25T15:15:18;17.03;;;3.87;;
70122;SDS011;57489;37.404;24.920;2023-04-25T15:20:18;10.93;;;3.60;;
70122;SDS011;57489;37.404;24.920;2023-04-25T15:25:19;9.83;;;3.33;;
70122;SDS011;57489;37.404;24.920;2023-04-25T15:30:19;15.23;;;4.27;;
70122;SDS011;57489;37.404;24.920;2023-04-25T15:35:20;9.97;;;3.53;;
70122;SDS011;57489;37.404;24.920;2023-04-25T15:40:20;13.00;;;5.03;;
70122;SDS011;57489;37.404;24.920;2023-04-25T15:45:22;12.02;;;3.80;;
70122;SDS011;57489;37.404;24.920;2023-04-25T15:50:23;12.27;;;3.80;;
70122;SDS011;57489;37.404;24.920;2023-04-25T15:55:24;10.50;;;3.47;;
70122;SDS011;57489;37.404;24.920;2023-04-25T16:00:25;11.57;;;3.70;;
70122;SDS011;57489;37.404;24.920;2023-04-25T16:05:25;12.07;;;3.97;;
70122;SDS011;57489;37.404;24.920;2023-04-25T16:10:26;14.68;;;3.90;;
70122;SDS011;57489;37.404;24.920;2023-04-25T16:15:26;13.13;;;3.70;;
70122;SDS011;57489;37.404;24.920;2023-04-25T16:20:27;10.60;;;4.07;;
70122;SDS011;57489;37.404;24.920;2023-04-25T16:25:27;15.93;;;4.07;;
70122;SDS011;57489;37.404;24.920;2023-04-25T16:30:28;16.60;;;4.30;;
70122;SDS011;57489;37.404;24.920;2023-04-25T16:35:28;14.37;;;3.70;;
70122;SDS011;57489;37.404;24.920;2023-04-25T16:40:29;7.33;;;3.43;;
70122;SDS011;57489;37.404;24.920;2023-04-25T16:45:29;13.43;;;3.50;;
70122;SDS011;57489;37.404;24.920;2023-04-25T16:50:30;15.70;;;3.80;;
70122;SDS011;57489;37.404;24.920;2023-04-25T16:55:31;16.83;;;4.63;;
70122;SDS011;57489;37.404;24.920;2023-04-25T17:00:31;16.60;;;4.20;;
70122;SDS011;57489;37.404;24.920;2023-04-25T17:05:33;20.73;;;4.97;;
70122;SDS011;57489;37.404;24.920;2023-04-25T17:10:34;12.57;;;5.25;;
70122;SDS011;57489;37.404;24.920;2023-04-25T17:15:35;16.50;;;5.10;;
70122;SDS011;57489;37.404;24.920;2023-04-25T17:20:35;15.17;;;4.70;;
70122;SDS011;57489;37.404;24.920;2023-04-25T17:25:43;18.20;;;4.57;;
70122;SDS011;57489;37.404;24.920;2023-04-25T17:30:43;13.45;;;5.78;;
70122;SDS011;57489;37.404;24.920;2023-04-25T17:35:44;19.63;;;5.13;;
70122;SDS011;57489;37.404;24.920;2023-04-25T17:40:44;21.10;;;5.10;;
70122;SDS011;57489;37.404;24.920;2023-04-25T17:45:46;18.63;;;4.97;;
70122;SDS011;57489;37.404;24.920;2023-04-25T17:50:47;8.70;;;3.97;;
70122;SDS011;57489;37.404;24.920;2023-04-25T17:55:47;12.73;;;4.60;;
70122;SDS011;57489;37.404;24.920;2023-04-25T18:00:48;14.07;;;4.90;;
70122;SDS011;57489;37.404;24.920;2023-04-25T18:05:48;18.73;;;5.60;;
70122;SDS011;57489;37.404;24.920;2023-04-25T18:10:49;15.70;;;5.30;;
70122;SDS011;57489;37.404;24.920;2023-04-25T18:15:49;17.70;;;5.17;;
70122;SDS011;57489;37.404;24.920;2023-04-25T18:20:50;14.33;;;5.10;;
70122;SDS011;57489;37.404;24.920;2023-04-25T18:25:51;11.68;;;4.70;;
70122;SDS011;57489;37.404;24.920;2023-04-25T18:30:51;19.70;;;7.83;;
70122;SDS011;57489;37.404;24.920;2023-04-25T18:35:52;17.10;;;6.37;;
70122;SDS011;57489;37.404;24.920;2023-04-25T18:40:52;29.07;;;8.40;;
70122;SDS011;57489;37.404;24.920;2023-04-25T18:45:53;18.40;;;8.15;;
70122;SDS011;57489;37.404;24.920;2023-04-25T18:50:53;25.33;;;6.23;;
70122;SDS011;57489;37.404;24.920;2023-04-25T18:55:54;22.07;;;6.20;;
70122;SDS011;57489;37.404;24.920;2023-04-25T19:00:54;14.30;;;7.10;;
70122;SDS011;57489;37.404;24.920;2023-04-25T19:05:54;17.97;;;6.53;;
70122;SDS011;57489;37.404;24.920;2023-04-25T19:10:55;19.70;;;5.70;;
70122;SDS011;57489;37.404;24.920;2023-04-25T19:15:56;19.03;;;5.60;;
70122;SDS011;57489;37.404;24.920;2023-04-25T19:20:56;17.70;;;6.03;;
70122;SDS011;57489;37.404;24.920;2023-04-25T19:25:57;16.42;;;6.07;;
70122;SDS011;57489;37.404;24.920;2023-04-25T19:30:57;17.47;;;5.53;;
70122;SDS011;57489;37.404;24.920;2023-04-25T19:35:58;14.87;;;5.23;;
70122;SDS011;57489;37.404;24.920;2023-04-25T19:40:58;15.70;;;5.73;;
70122;SDS011;57489;37.404;24.920;2023-04-25T19:45:59;14.53;;;5.43;;
70122;SDS011;57489;37.404;24.920;2023-04-25T19:50:59;22.88;;;7.63;;
70122;SDS011;57489;37.404;24.920;2023-04-25T19:56:00;53.70;;;21.00;;
70122;SDS011;57489;37.404;24.920;2023-04-25T20:01:01;24.00;;;8.27;;
70122;SDS011;57489;37.404;24.920;2023-04-25T20:06:01;35.40;;;15.00;;
70122;SDS011;57489;37.404;24.920;2023-04-25T20:11:02;27.10;;;11.20;;
70122;SDS011;57489;37.404;24.920;2023-04-25T20:16:02;19.98;;;6.80;;
70122;SDS011;57489;37.404;24.920;2023-04-25T20:21:03;19.00;;;7.30;;
70122;SDS011;57489;37.404;24.920;2023-04-25T20:26:03;20.33;;;7.40;;
70122;SDS011;57489;37.404;24.920;2023-04-25T20:31:04;20.43;;;7.50;;
70122;SDS011;57489;37.404;24.920;2023-04-25T20:36:04;19.63;;;6.83;;
70122;SDS011;57489;37.404;24.920;2023-04-25T20:41:05;17.97;;;6.47;;
70122;SDS011;57489;37.404;24.920;2023-04-25T20:46:05;19.20;;;6.35;;
70122;SDS011;57489;37.404;24.920;2023-04-25T20:51:06;16.17;;;6.57;;
70122;SDS011;57489;37.404;24.920;2023-04-25T20:56:06;16.00;;;5.60;;
70122;SDS011;57489;37.404;24.920;2023-04-25T21:01:07;17.37;;;5.73;;
70122;SDS011;57489;37.404;24.920;2023-04-25T21:06:07;15.80;;;5.65;;
70122;SDS011;57489;37.404;24.920;2023-04-25T21:11:08;16.30;;;5.47;;
70122;SDS011;57489;37.404;24.920;2023-04-25T21:16:08;13.07;;;5.90;;
70122;SDS011;57489;37.404;24.920;2023-04-25T21:21:09;18.00;;;5.90;;
70122;SDS011;57489;37.404;24.920;2023-04-25T21:26:09;17.07;;;6.00;;
70122;SDS011;57489;37.404;24.920;2023-04-25T21:31:10;13.10;;;5.70;;
70122;SDS011;57489;37.404;24.920;2023-04-25T21:36:11;15.37;;;5.87;;
70122;SDS011;57489;37.404;24.920;2023-04-25T21:41:12;17.67;;;5.18;;
70122;SDS011;57489;37.404;24.920;2023-04-25T21:46:12;15.23;;;5.40;;
70122;SDS011;57489;37.404;24.920;2023-04-25T21:51:13;20.83;;;5.63;;
70122;SDS011;57489;37.404;24.920;2023-04-25T21:56:13;17.43;;;5.33;;
70122;SDS011;57489;37.404;24.920;2023-04-25T22:01:13;12.80;;;4.97;;
70122;SDS011;57489;37.404;24.920;2023-04-25T22:06:14;14.67;;;4.63;;
70122;SDS011;57489;37.404;24.920;2023-04-25T22:11:14;12.73;;;4.10;;
70122;SDS011;57489;37.404;24.920;2023-04-25T22:21:53;11.67;;;4.53;;
70122;SDS011;57489;37.404;24.920;2023-04-25T22:26:53;11.13;;;4.73;;
70122;SDS011;57489;37.404;24.920;2023-04-25T22:31:54;12.00;;;4.20;;
70122;SDS011;57489;37.404;24.920;2023-04-25T22:36:54;13.70;;;4.70;;
70122;SDS011;57489;37.404;24.920;2023-04-25T22:41:55;10.73;;;4.47;;
70122;SDS011;57489;37.404;24.920;2023-04-25T22:46:55;10.20;;;4.27;;
70122;SDS011;57489;37.404;24.920;2023-04-25T22:51:55;10.37;;;4.10;;
70122;SDS011;57489;37.404;24.920;2023-04-25T22:56:56;10.37;;;3.97;;
70122;SDS011;57489;37.404;24.920;2023-04-25T23:01:56;10.27;;;4.10;;
70122;SDS011;57489;37.404;24.920;2023-04-25T23:06:57;11.13;;;4.17;;
70122;SDS011;57489;37.404;24.920;2023-04-25T23:11:57;10.77;;;4.67;;
70122;SDS011;57489;37.404;24.920;2023-04-25T23:16:58;8.90;;;4.47;;
70122;SDS011;57489;37.404;24.920;2023-04-25T23:21:58;10.38;;;3.85;;
70122;SDS011;57489;37.404;24.920;2023-04-25T23:26:59;10.83;;;4.40;;
70122;SDS011;57489;37.404;24.920;2023-04-25T23:32:00;12.73;;;4.23;;
70122;SDS011;57489;37.404;24.920;2023-04-25T23:37:00;9.53;;;3.50;;
70122;SDS011;57489;37.404;24.920;2023-04-25T23:42:01;8.80;;;4.00;;
70122;SDS011;57489;37.404;24.920;2023-04-25T23:47:01;12.10;;;3.90;;
70122;SDS011;57489;37.404;24.920;2023-04-25T23:52:02;10.30;;;3.57;;
70122;SDS011;57489;37.404;24.920;2023-04-25T23:57:02;8.60;;;3.83;;
